Time;durP1;ratioP1;P1;durP2;ratioP2;P2;SDS_P1;SDS_P2;PMS_P1;PMS_P2;Temp;Humidity;BMP_temperature;BMP_pressure;BME280_temperature;BME280_humidity;BME280_pressure;Samples;Min_cycle;Max_cycle;Signal;HPM_P1;HPM_P2
2023/04/08 00:01:30;;;;;;;15.07;9.57;;;;;;;;;;5020299;28;20217;-69
2023/04/08 00:03:55;;;;;;;14.00;9.03;;;;;;;;;;5023908;28;20190;-68
2023/04/08 00:06:20;;;;;;;13.63;8.93;;;;;;;;;;5024939;28;20190;-68
2023/04/08 00:08:46;;;;;;;13.43;9.07;;;;;;;;;;5026988;28;20677;-68
2023/04/08 00:11:11;;;;;;;11.30;8.10;;;;;;;;;;5022869;28;20271;-69
2023/04/08 00:13:36;;;;;;;13.57;8.67;;;;;;;;;;5025282;28;20185;-69
2023/04/08 00:16:02;;;;;;;13.73;7.53;;;;;;;;;;5019449;28;20240;-69
2023/04/08 00:18:28;;;;;;;12.77;7.97;;;;;;;;;;5027626;28;20199;-69
2023/04/08 00:20:53;;;;;;;13.73;8.37;;;;;;;;;;5029730;28;20626;-68
2023/04/08 00:23:20;;;;;;;10.67;7.80;;;;;;;;;;5027112;28;20296;-68
2023/04/08 00:25:45;;;;;;;14.53;8.23;;;;;;;;;;5027134;28;20178;-70
2023/04/08 00:28:11;;;;;;;12.30;7.73;;;;;;;;;;5021800;28;20219;-69
2023/04/08 00:30:37;;;;;;;11.43;7.93;;;;;;;;;;5026345;28;20230;-69
2023/04/08 00:33:03;;;;;;;10.73;7.50;;;;;;;;;;5020317;28;20202;-69
2023/04/08 00:35:28;;;;;;;12.83;8.17;;;;;;;;;;5018140;28;20249;-69
2023/04/08 00:37:54;;;;;;;13.47;7.47;;;;;;;;;;5024658;28;20190;-69
2023/04/08 00:40:19;;;;;;;13.50;7.83;;;;;;;;;;5024605;28;20294;-68
2023/04/08 00:42:44;;;;;;;11.60;7.23;;;;;;;;;;5026308;28;20433;-69
2023/04/08 00:45:10;;;;;;;13.23;7.53;;;;;;;;;;5018231;28;20257;-69
2023/04/08 00:47:37;;;;;;;12.50;7.50;;;;;;;;;;5022597;28;20674;-68
2023/04/08 00:50:03;;;;;;;11.20;7.30;;;;;;;;;;5023302;28;20208;-68
2023/04/08 00:52:28;;;;;;;11.90;7.43;;;;;;;;;;5026042;28;20186;-68
2023/04/08 00:54:54;;;;;;;10.20;7.10;;;;;;;;;;5021007;28;20573;-70
2023/04/08 00:57:20;;;;;;;10.03;7.10;;;;;;;;;;5022124;28;20282;-68
2023/04/08 00:59:46;;;;;;;11.10;6.93;;;;;;;;;;5023030;28;20353;-68
2023/04/08 01:02:40;;;;;;;11.80;7.80;;;;;;;;;;5026127;28;20221;-68
2023/04/08 01:05:12;;;;;;;10.70;6.87;;;;;;;;;;5020479;28;20532;-69
2023/04/08 01:07:43;;;;;;;11.03;6.63;;;;;;;;;;5025522;28;20297;-69
2023/04/08 01:10:20;;;;;;;10.63;6.90;;;;;;;;;;5020900;28;20708;-68
2023/04/08 01:12:53;;;;;;;11.00;7.40;;;;;;;;;;5028362;28;20288;-70
2023/04/08 01:15:20;;;;;;;12.73;7.13;;;;;;;;;;5023196;28;20737;-68
2023/04/08 01:17:47;;;;;;;12.60;7.13;;;;;;;;;;5019441;28;20276;-69
2023/04/08 01:20:15;;;;;;;10.43;7.37;;;;;;;;;;5024880;28;20190;-70
2023/04/08 01:22:53;;;;;;;12.53;7.67;;;;;;;;;;5030391;28;20286;-69
2023/04/08 01:25:22;;;;;;;11.57;7.77;;;;;;;;;;5017435;28;20190;-69
2023/04/08 01:27:48;;;;;;;12.27;8.63;;;;;;;;;;5029340;28;20368;-68
2023/04/08 01:30:17;;;;;;;13.23;7.90;;;;;;;;;;5030071;28;20265;-69
2023/04/08 01:32:43;;;;;;;10.63;7.90;;;;;;;;;;5026299;28;20197;-69
2023/04/08 01:35:10;;;;;;;12.00;7.20;;;;;;;;;;5028484;28;20340;-69
2023/04/08 01:37:36;;;;;;;12.30;7.83;;;;;;;;;;5025884;28;20285;-69
2023/04/08 01:40:03;;;;;;;11.83;7.30;;;;;;;;;;5025327;28;20201;-69
2023/04/08 01:42:30;;;;;;;11.53;7.77;;;;;;;;;;5028507;28;20260;-69
2023/04/08 01:44:58;;;;;;;12.93;8.37;;;;;;;;;;5027264;28;20560;-69
2023/04/08 01:47:24;;;;;;;12.90;8.10;;;;;;;;;;5026285;28;20230;-69
2023/04/08 01:49:51;;;;;;;13.10;8.50;;;;;;;;;;5028050;28;20225;-69
2023/04/08 01:52:19;;;;;;;12.53;8.57;;;;;;;;;;5028245;28;20190;-69
2023/04/08 01:54:46;;;;;;;14.13;8.20;;;;;;;;;;5027981;28;20568;-69
2023/04/08 01:57:14;;;;;;;13.37;8.40;;;;;;;;;;5028397;28;20225;-69
2023/04/08 01:59:41;;;;;;;12.97;7.90;;;;;;;;;;5024513;28;20202;-69
2023/04/08 02:02:08;;;;;;;12.97;8.20;;;;;;;;;;5020042;28;20518;-69
2023/04/08 02:04:34;;;;;;;10.37;7.47;;;;;;;;;;5027692;28;20255;-68
2023/04/08 02:07:01;;;;;;;15.23;8.10;;;;;;;;;;5020640;28;20201;-69
2023/04/08 02:09:26;;;;;;;13.70;8.27;;;;;;;;;;5027530;28;20205;-69
2023/04/08 02:11:52;;;;;;;11.17;7.87;;;;;;;;;;5027210;28;20255;-69
2023/04/08 02:14:17;;;;;;;10.67;7.57;;;;;;;;;;5021354;28;20201;-68
2023/04/08 02:16:51;;;;;;;15.20;8.50;;;;;;;;;;5024236;28;20182;-69
2023/04/08 02:19:28;;;;;;;12.30;8.03;;;;;;;;;;5022931;28;20568;-68
2023/04/08 02:22:06;;;;;;;11.40;7.50;;;;;;;;;;5027684;28;20685;-70
2023/04/08 02:24:34;;;;;;;13.30;8.03;;;;;;;;;;5025401;28;20262;-69
2023/04/08 02:27:02;;;;;;;15.93;8.10;;;;;;;;;;5027016;28;20191;-68
2023/04/08 02:29:30;;;;;;;13.07;8.00;;;;;;;;;;5029406;28;20407;-68
2023/04/08 02:31:57;;;;;;;12.13;7.50;;;;;;;;;;5027843;28;20594;-68
2023/04/08 02:34:23;;;;;;;13.97;8.03;;;;;;;;;;5027420;28;20248;-68
2023/04/08 02:36:50;;;;;;;12.97;7.93;;;;;;;;;;5029101;28;20256;-69
2023/04/08 02:39:16;;;;;;;10.23;7.37;;;;;;;;;;5026640;28;20210;-68
2023/04/08 02:41:41;;;;;;;10.60;7.27;;;;;;;;;;5018023;28;20194;-68
2023/04/08 02:44:06;;;;;;;11.57;7.60;;;;;;;;;;5025942;28;20195;-68
2023/04/08 02:46:32;;;;;;;10.33;7.23;;;;;;;;;;5029810;28;20236;-68
2023/04/08 02:48:57;;;;;;;12.13;7.40;;;;;;;;;;5021648;28;20362;-68
2023/04/08 02:51:23;;;;;;;11.50;6.73;;;;;;;;;;5026321;28;20197;-69
2023/04/08 02:53:48;;;;;;;12.20;6.97;;;;;;;;;;5018781;28;20589;-69
2023/04/08 02:56:13;;;;;;;10.80;7.07;;;;;;;;;;5026970;28;20285;-69
2023/04/08 02:58:39;;;;;;;9.83;6.90;;;;;;;;;;5026403;28;20193;-68
2023/04/08 03:01:04;;;;;;;10.57;6.70;;;;;;;;;;5022959;28;20214;-68
2023/04/08 03:03:30;;;;;;;16.33;6.63;;;;;;;;;;5023619;28;20267;-68
2023/04/08 03:05:56;;;;;;;9.80;6.67;;;;;;;;;;5024838;28;20190;-69
2023/04/08 03:08:22;;;;;;;12.63;7.60;;;;;;;;;;5025841;28;20186;-69
2023/04/08 03:10:48;;;;;;;11.00;7.10;;;;;;;;;;5027806;28;20194;-69
2023/04/08 03:13:14;;;;;;;15.10;7.17;;;;;;;;;;5026692;28;20197;-69
2023/04/08 03:15:39;;;;;;;13.63;7.47;;;;;;;;;;5025680;28;20190;-68
2023/04/08 03:18:05;;;;;;;11.23;7.10;;;;;;;;;;5025473;28;20647;-68
2023/04/08 03:20:30;;;;;;;12.77;7.10;;;;;;;;;;5024548;28;21798;-69
2023/04/08 03:22:55;;;;;;;12.07;8.03;;;;;;;;;;5025952;28;20290;-69
2023/04/08 03:25:21;;;;;;;11.30;6.30;;;;;;;;;;5023621;28;20197;-69
2023/04/08 03:27:46;;;;;;;12.23;6.97;;;;;;;;;;5028688;28;20613;-69
2023/04/08 03:30:11;;;;;;;12.67;6.90;;;;;;;;;;5024904;28;20226;-68
2023/04/08 03:32:37;;;;;;;11.97;6.93;;;;;;;;;;5021447;28;20248;-69
2023/04/08 03:35:03;;;;;;;12.77;7.30;;;;;;;;;;5025796;28;20194;-69
2023/04/08 03:37:29;;;;;;;11.90;7.33;;;;;;;;;;5024006;28;20281;-69
2023/04/08 03:39:55;;;;;;;11.20;6.63;;;;;;;;;;5022289;28;20276;-69
2023/04/08 03:42:20;;;;;;;11.17;6.70;;;;;;;;;;5023101;28;20221;-69
2023/04/08 03:44:45;;;;;;;10.33;6.53;;;;;;;;;;5017609;28;20217;-68
2023/04/08 03:47:11;;;;;;;10.70;6.70;;;;;;;;;;5024073;28;20217;-69
2023/04/08 03:49:36;;;;;;;11.73;6.63;;;;;;;;;;5024513;28;20387;-68
2023/04/08 03:52:02;;;;;;;10.77;6.80;;;;;;;;;;5027624;28;20268;-69
2023/04/08 03:54:27;;;;;;;15.43;6.30;;;;;;;;;;5019286;28;20240;-68
2023/04/08 03:56:52;;;;;;;10.73;6.93;;;;;;;;;;5023346;28;20198;-68
2023/04/08 03:59:18;;;;;;;10.47;7.03;;;;;;;;;;5025849;28;20219;-69
2023/04/08 04:01:43;;;;;;;12.10;6.87;;;;;;;;;;5023977;28;20717;-68
2023/04/08 04:04:09;;;;;;;11.37;6.77;;;;;;;;;;5022996;28;20190;-69
2023/04/08 04:06:34;;;;;;;10.80;6.70;;;;;;;;;;5025054;28;20273;-69
2023/04/08 04:09:00;;;;;;;12.30;6.57;;;;;;;;;;5019835;28;20268;-68
2023/04/08 04:11:26;;;;;;;11.67;7.23;;;;;;;;;;5024836;28;20202;-68
2023/04/08 04:13:51;;;;;;;11.87;7.50;;;;;;;;;;5025149;28;20450;-68
2023/04/08 04:16:16;;;;;;;9.97;7.00;;;;;;;;;;5020180;28;20570;-69
2023/04/08 04:18:42;;;;;;;15.83;7.10;;;;;;;;;;5020845;28;20676;-68
2023/04/08 04:21:07;;;;;;;12.00;6.93;;;;;;;;;;5023146;28;20280;-68
2023/04/08 04:23:33;;;;;;;12.00;6.60;;;;;;;;;;5017662;28;20265;-68
2023/04/08 04:25:58;;;;;;;13.87;6.70;;;;;;;;;;5025997;28;20221;-68
2023/04/08 04:28:23;;;;;;;11.63;7.43;;;;;;;;;;5022153;28;20736;-73
2023/04/08 04:30:49;;;;;;;12.63;7.27;;;;;;;;;;5018696;28;20230;-69
2023/04/08 04:33:14;;;;;;;12.27;7.40;;;;;;;;;;5023231;28;20181;-69
2023/04/08 04:35:41;;;;;;;11.20;7.17;;;;;;;;;;5020227;28;20403;-68
2023/04/08 04:38:11;;;;;;;10.50;7.33;;;;;;;;;;5025747;28;20284;-68
2023/04/08 04:40:36;;;;;;;12.93;7.13;;;;;;;;;;5019384;28;20214;-69
2023/04/08 04:43:02;;;;;;;13.80;7.90;;;;;;;;;;5015611;28;20210;-68
2023/04/08 04:45:27;;;;;;;11.20;7.60;;;;;;;;;;5021298;28;20220;-68
2023/04/08 04:47:52;;;;;;;14.27;8.00;;;;;;;;;;5023086;28;20191;-68
2023/04/08 04:50:18;;;;;;;21.20;11.37;;;;;;;;;;5021526;28;20256;-68
2023/04/08 04:52:43;;;;;;;16.90;8.50;;;;;;;;;;5020107;28;20194;-68
2023/04/08 04:55:09;;;;;;;12.63;8.60;;;;;;;;;;5014303;28;20265;-68
2023/04/08 04:57:34;;;;;;;18.07;10.50;;;;;;;;;;5026196;28;20679;-68
2023/04/08 04:59:59;;;;;;;16.70;9.67;;;;;;;;;;5020690;28;20621;-69
2023/04/08 05:02:25;;;;;;;16.20;10.03;;;;;;;;;;5023482;28;20256;-69
2023/04/08 05:04:52;;;;;;;15.90;9.43;;;;;;;;;;5023748;28;20922;-68
2023/04/08 05:07:18;;;;;;;13.80;8.90;;;;;;;;;;5022231;28;20198;-68
2023/04/08 05:09:43;;;;;;;13.90;8.73;;;;;;;;;;5021909;28;20232;-69
2023/04/08 05:12:08;;;;;;;14.50;8.70;;;;;;;;;;5023531;28;20197;-69
2023/04/08 05:14:34;;;;;;;15.50;9.97;;;;;;;;;;5021407;28;20229;-69
2023/04/08 05:17:00;;;;;;;14.07;8.70;;;;;;;;;;5018815;28;20190;-68
2023/04/08 05:19:25;;;;;;;15.37;9.40;;;;;;;;;;5020796;28;20269;-69
2023/04/08 05:21:50;;;;;;;13.07;8.60;;;;;;;;;;5024984;28;20222;-68
2023/04/08 05:24:16;;;;;;;17.67;10.17;;;;;;;;;;5017621;28;20194;-68
2023/04/08 05:26:41;;;;;;;14.37;9.23;;;;;;;;;;5023824;28;20445;-69
2023/04/08 05:29:06;;;;;;;16.40;9.40;;;;;;;;;;5023153;28;20248;-68
2023/04/08 05:31:32;;;;;;;14.27;8.67;;;;;;;;;;5021764;28;20756;-69
2023/04/08 05:33:57;;;;;;;17.70;8.90;;;;;;;;;;5021930;28;20300;-69
2023/04/08 05:36:23;;;;;;;13.00;9.13;;;;;;;;;;5029743;28;20193;-68
2023/04/08 05:38:48;;;;;;;14.93;9.23;;;;;;;;;;5021012;28;20190;-69
2023/04/08 05:41:14;;;;;;;13.53;9.33;;;;;;;;;;5036762;28;20729;-69
2023/04/08 05:43:40;;;;;;;13.27;9.60;;;;;;;;;;5021950;28;20260;-68
2023/04/08 05:46:10;;;;;;;15.10;9.60;;;;;;;;;;5021539;28;20190;-69
2023/04/08 05:48:35;;;;;;;14.77;9.40;;;;;;;;;;5018396;28;20201;-69
2023/04/08 05:51:02;;;;;;;16.13;9.17;;;;;;;;;;5023705;28;20198;-70
2023/04/08 05:53:27;;;;;;;13.33;9.57;;;;;;;;;;5019313;28;20182;-69
2023/04/08 05:55:53;;;;;;;13.27;9.43;;;;;;;;;;5020100;28;20532;-69
2023/04/08 05:58:18;;;;;;;12.80;9.07;;;;;;;;;;5021211;28;20218;-70
2023/04/08 06:00:44;;;;;;;13.67;10.27;;;;;;;;;;5024942;28;20210;-70
2023/04/08 06:03:09;;;;;;;12.93;9.63;;;;;;;;;;5023241;28;20203;-69
2023/04/08 06:05:34;;;;;;;17.43;10.43;;;;;;;;;;5019998;28;20304;-69
2023/04/08 06:08:00;;;;;;;18.73;10.33;;;;;;;;;;5026102;28;20197;-69
2023/04/08 06:10:25;;;;;;;17.67;9.67;;;;;;;;;;5029349;28;20225;-69
2023/04/08 06:12:51;;;;;;;17.73;10.30;;;;;;;;;;5025447;28;20198;-69
2023/04/08 06:15:16;;;;;;;16.97;10.70;;;;;;;;;;5022205;28;20682;-68
2023/04/08 06:17:42;;;;;;;18.50;11.30;;;;;;;;;;5027652;28;20188;-70
2023/04/08 06:20:08;;;;;;;18.63;10.30;;;;;;;;;;5027068;28;20210;-70
2023/04/08 06:22:39;;;;;;;16.80;11.43;;;;;;;;;;5026607;28;20209;-68
2023/04/08 06:25:05;;;;;;;18.67;11.77;;;;;;;;;;5023311;28;20221;-69
2023/04/08 06:27:30;;;;;;;20.10;12.70;;;;;;;;;;5023153;28;20214;-71
2023/04/08 06:29:56;;;;;;;19.33;11.67;;;;;;;;;;5024669;28;20193;-70
2023/04/08 06:32:21;;;;;;;19.17;12.93;;;;;;;;;;5025143;28;20233;-69
2023/04/08 06:34:47;;;;;;;18.80;12.50;;;;;;;;;;5034573;28;20219;-70
2023/04/08 06:37:13;;;;;;;18.37;11.97;;;;;;;;;;5024360;28;20248;-69
2023/04/08 06:39:38;;;;;;;17.73;11.73;;;;;;;;;;5025566;28;20194;-69
2023/04/08 06:42:05;;;;;;;17.93;11.67;;;;;;;;;;5026062;28;20214;-69
2023/04/08 06:44:30;;;;;;;18.27;11.87;;;;;;;;;;5022978;28;20190;-70
2023/04/08 06:46:56;;;;;;;16.43;11.93;;;;;;;;;;5023574;28;20550;-69
2023/04/08 06:49:21;;;;;;;17.73;12.70;;;;;;;;;;5018370;28;20591;-69
2023/04/08 06:51:46;;;;;;;19.57;13.20;;;;;;;;;;5025786;28;20201;-69
2023/04/08 06:54:12;;;;;;;20.10;12.77;;;;;;;;;;5026120;28;20187;-69
2023/04/08 06:56:37;;;;;;;18.00;12.37;;;;;;;;;;5025969;28;20198;-69
2023/04/08 06:59:05;;;;;;;20.27;13.43;;;;;;;;;;5023167;28;20218;-69
2023/04/08 07:01:30;;;;;;;18.43;13.07;;;;;;;;;;5020951;28;20727;-68
2023/04/08 07:03:56;;;;;;;18.10;12.97;;;;;;;;;;5018881;28;20210;-69
2023/04/08 07:06:21;;;;;;;19.13;13.53;;;;;;;;;;5024131;28;20489;-72
2023/04/08 07:08:47;;;;;;;21.30;13.27;;;;;;;;;;5021914;28;20660;-70
2023/04/08 07:11:12;;;;;;;18.77;13.87;;;;;;;;;;5019998;28;20224;-69
2023/04/08 07:13:38;;;;;;;22.17;13.13;;;;;;;;;;5028109;28;20604;-70
2023/04/08 07:16:03;;;;;;;18.75;12.73;;;;;;;;;;5025373;28;20186;-70
2023/04/08 07:18:29;;;;;;;20.40;13.37;;;;;;;;;;5020055;28;20200;-70
2023/04/08 07:20:55;;;;;;;19.15;12.57;;;;;;;;;;5024943;28;20506;-70
2023/04/08 07:23:21;;;;;;;20.80;12.83;;;;;;;;;;5022675;28;20693;-69
2023/04/08 07:25:47;;;;;;;19.05;12.23;;;;;;;;;;5018968;28;20634;-68
2023/04/08 07:28:12;;;;;;;15.95;11.30;;;;;;;;;;5022716;28;20189;-68
2023/04/08 07:30:37;;;;;;;16.05;11.20;;;;;;;;;;5024491;28;21338;-68
2023/04/08 07:33:03;;;;;;;17.13;11.50;;;;;;;;;;5022171;28;20194;-68
2023/04/08 07:35:28;;;;;;;15.90;11.35;;;;;;;;;;5017642;28;20197;-68
2023/04/08 07:37:54;;;;;;;14.07;10.88;;;;;;;;;;5019336;28;20186;-70
2023/04/08 07:40:20;;;;;;;14.75;10.77;;;;;;;;;;5021487;28;20743;-68
2023/04/08 07:42:46;;;;;;;16.23;11.02;;;;;;;;;;5023725;28;20881;-68
2023/04/08 07:45:11;;;;;;;15.68;10.63;;;;;;;;;;5023621;28;20199;-68
2023/04/08 07:47:36;;;;;;;21.17;11.38;;;;;;;;;;5022144;28;20226;-69
2023/04/08 07:50:06;;;;;;;17.35;10.50;;;;;;;;;;5017552;28;20182;-69
2023/04/08 07:52:31;;;;;;;14.98;10.85;;;;;;;;;;5015326;28;20871;-69
2023/04/08 07:54:57;;;;;;;14.65;10.35;;;;;;;;;;5025140;28;20196;-69
2023/04/08 07:57:22;;;;;;;14.65;11.10;;;;;;;;;;5019285;28;20187;-69
2023/04/08 07:59:48;;;;;;;15.13;10.00;;;;;;;;;;5012759;28;20187;-69
2023/04/08 08:02:13;;;;;;;13.80;10.38;;;;;;;;;;5023842;28;20214;-69
2023/04/08 08:04:38;;;;;;;15.20;10.80;;;;;;;;;;5023943;28;20201;-69
2023/04/08 08:07:04;;;;;;;15.90;10.93;;;;;;;;;;5021502;28;20193;-68
2023/04/08 08:09:30;;;;;;;15.93;10.70;;;;;;;;;;5024215;28;20247;-68
2023/04/08 08:11:55;;;;;;;13.00;9.50;;;;;;;;;;5016601;28;20255;-69
2023/04/08 08:14:20;;;;;;;12.88;10.18;;;;;;;;;;5023319;28;20205;-68
2023/04/08 08:16:46;;;;;;;14.77;11.07;;;;;;;;;;5024174;28;20552;-68
2023/04/08 08:19:12;;;;;;;13.57;10.30;;;;;;;;;;5022510;28;20281;-68
2023/04/08 08:21:40;;;;;;;17.70;12.52;;;;;;;;;;5022468;28;20194;-68
2023/04/08 08:24:06;;;;;;;15.27;11.05;;;;;;;;;;5025063;28;20558;-69
2023/04/08 08:26:35;;;;;;;13.65;10.30;;;;;;;;;;5025421;28;20198;-69
2023/04/08 08:29:01;;;;;;;14.80;10.50;;;;;;;;;;5024260;28;20192;-69
2023/04/08 08:31:26;;;;;;;16.33;10.85;;;;;;;;;;5023201;28;20245;-69
2023/04/08 08:33:51;;;;;;;14.40;10.95;;;;;;;;;;5023687;28;20885;-69
2023/04/08 08:36:17;;;;;;;15.32;10.82;;;;;;;;;;5023698;28;20269;-69
2023/04/08 08:38:42;;;;;;;14.25;10.18;;;;;;;;;;5024776;28;20189;-69
2023/04/08 08:41:08;;;;;;;14.57;10.10;;;;;;;;;;5024122;28;20271;-69
2023/04/08 08:43:34;;;;;;;15.15;9.93;;;;;;;;;;5022329;28;20202;-69
2023/04/08 08:46:00;;;;;;;13.40;9.85;;;;;;;;;;5019274;28;20182;-69
2023/04/08 08:48:25;;;;;;;13.20;10.13;;;;;;;;;;5022814;28;20197;-69
2023/04/08 08:50:51;;;;;;;13.45;9.73;;;;;;;;;;5001425;28;20186;-69
2023/04/08 08:53:16;;;;;;;15.93;10.32;;;;;;;;;;5021084;28;20339;-69
2023/04/08 08:55:42;;;;;;;14.65;10.30;;;;;;;;;;5023353;28;20618;-69
2023/04/08 08:58:07;;;;;;;15.35;10.30;;;;;;;;;;5023575;28;20626;-69
2023/04/08 09:00:38;;;;;;;15.10;10.93;;;;;;;;;;5025181;28;20221;-70
2023/04/08 09:03:16;;;;;;;15.90;11.32;;;;;;;;;;5023129;28;20210;-68
2023/04/08 09:05:49;;;;;;;14.68;10.65;;;;;;;;;;5024556;28;20194;-69
2023/04/08 09:08:32;;;;;;;15.23;10.35;;;;;;;;;;5024651;28;20645;-68
2023/04/08 09:11:15;;;;;;;17.50;10.98;;;;;;;;;;5022824;28;20206;-68
2023/04/08 09:13:41;;;;;;;15.50;11.07;;;;;;;;;;5021785;28;20193;-68
2023/04/08 09:16:08;;;;;;;14.13;10.85;;;;;;;;;;5023399;28;20239;-68
2023/04/08 09:18:35;;;;;;;15.45;11.50;;;;;;;;;;5023451;28;20430;-69
2023/04/08 09:21:02;;;;;;;19.30;12.73;;;;;;;;;;5021755;28;20320;-69
2023/04/08 09:23:48;;;;;;;15.27;11.63;;;;;;;;;;5022885;28;20198;-69
2023/04/08 09:26:15;;;;;;;16.20;11.40;;;;;;;;;;5023024;28;20272;-69
2023/04/08 09:28:42;;;;;;;16.88;11.75;;;;;;;;;;5019937;28;20233;-70
2023/04/08 09:31:19;;;;;;;16.52;12.68;;;;;;;;;;5021268;28;20843;-70
2023/04/08 09:33:47;;;;;;;17.05;11.93;;;;;;;;;;5025360;28;20195;-69
2023/04/08 09:36:13;;;;;;;18.70;12.77;;;;;;;;;;5022045;28;20194;-69
2023/04/08 09:38:38;;;;;;;21.08;12.88;;;;;;;;;;5021366;28;20640;-69
2023/04/08 09:41:07;;;;;;;18.10;12.43;;;;;;;;;;5023897;28;20302;-70
2023/04/08 09:43:39;;;;;;;19.92;12.45;;;;;;;;;;5025904;28;20214;-69
2023/04/08 09:46:10;;;;;;;22.55;13.35;;;;;;;;;;5025304;28;20198;-69
2023/04/08 09:48:41;;;;;;;15.50;11.68;;;;;;;;;;5026890;28;20198;-70
2023/04/08 09:51:08;;;;;;;20.20;13.10;;;;;;;;;;5024205;28;20653;-69
2023/04/08 09:53:35;;;;;;;18.20;11.90;;;;;;;;;;5020997;28;20178;-68
2023/04/08 09:56:06;;;;;;;15.90;11.63;;;;;;;;;;5027665;28;20598;-71
2023/04/08 09:58:38;;;;;;;17.77;12.73;;;;;;;;;;5027189;28;20236;-70
2023/04/08 10:01:06;;;;;;;17.73;12.32;;;;;;;;;;5026690;28;20324;-69
2023/04/08 10:03:31;;;;;;;16.48;11.82;;;;;;;;;;5026062;28;20212;-69
2023/04/08 10:06:00;;;;;;;16.80;12.63;;;;;;;;;;5026732;28;20202;-69
2023/04/08 10:08:26;;;;;;;18.02;11.93;;;;;;;;;;5027467;28;20246;-71
2023/04/08 10:10:53;;;;;;;17.77;12.70;;;;;;;;;;5026559;28;20217;-70
2023/04/08 10:13:19;;;;;;;21.60;14.13;;;;;;;;;;5026152;28;20865;-69
2023/04/08 10:15:46;;;;;;;21.88;14.05;;;;;;;;;;5027331;28;20196;-69
2023/04/08 10:18:13;;;;;;;19.70;14.48;;;;;;;;;;5024780;28;20198;-69
2023/04/08 10:20:38;;;;;;;21.13;14.00;;;;;;;;;;5025341;28;20702;-69
2023/04/08 10:23:12;;;;;;;22.67;14.73;;;;;;;;;;5024573;28;20321;-70
2023/04/08 10:25:38;;;;;;;19.05;14.13;;;;;;;;;;5017438;28;20561;-69
2023/04/08 10:28:22;;;;;;;23.42;15.52;;;;;;;;;;5019084;28;20233;-69
2023/04/08 10:30:55;;;;;;;25.13;15.68;;;;;;;;;;5022181;28;20222;-69
2023/04/08 10:33:35;;;;;;;22.10;15.45;;;;;;;;;;5021942;28;20381;-69
2023/04/08 10:36:11;;;;;;;39.50;21.95;;;;;;;;;;5022345;28;20254;-69
2023/04/08 10:38:41;;;;;;;23.15;16.45;;;;;;;;;;5021947;28;20267;-70
2023/04/08 10:41:09;;;;;;;25.92;16.95;;;;;;;;;;5026217;28;20316;-70
2023/04/08 10:43:35;;;;;;;20.92;15.20;;;;;;;;;;5019416;28;20241;-70
2023/04/08 10:46:01;;;;;;;18.77;13.40;;;;;;;;;;5018330;28;20334;-69
2023/04/08 10:48:29;;;;;;;19.98;15.50;;;;;;;;;;5026344;28;20738;-69
2023/04/08 10:51:00;;;;;;;18.67;14.18;;;;;;;;;;5018943;28;20240;-69
2023/04/08 10:53:38;;;;;;;17.27;12.20;;;;;;;;;;5026252;28;20197;-69
2023/04/08 10:56:17;;;;;;;18.75;12.70;;;;;;;;;;5027627;28;20177;-69
2023/04/08 10:58:51;;;;;;;20.50;12.75;;;;;;;;;;5026504;28;20205;-70
2023/04/08 11:01:17;;;;;;;18.92;13.85;;;;;;;;;;5024766;28;20213;-69
2023/04/08 11:03:43;;;;;;;20.25;13.50;;;;;;;;;;5019108;28;20666;-69
2023/04/08 11:06:08;;;;;;;18.27;13.30;;;;;;;;;;5023104;28;20187;-69
2023/04/08 11:08:35;;;;;;;20.70;13.85;;;;;;;;;;5029394;28;20222;-70
2023/04/08 11:11:01;;;;;;;19.15;13.82;;;;;;;;;;5020985;28;20658;-69
2023/04/08 11:13:27;;;;;;;17.45;13.07;;;;;;;;;;5028642;28;20660;-68
2023/04/08 11:15:55;;;;;;;20.63;13.98;;;;;;;;;;5028228;28;20186;-68
2023/04/08 11:18:22;;;;;;;18.45;13.68;;;;;;;;;;4329946;28;10000411;-69
2023/04/08 11:20:50;;;;;;;20.73;14.65;;;;;;;;;;5024993;28;20340;-69
2023/04/08 11:23:16;;;;;;;22.38;14.75;;;;;;;;;;5023473;28;20526;-68
2023/04/08 11:25:43;;;;;;;22.77;15.95;;;;;;;;;;5021310;28;20199;-69
2023/04/08 11:28:09;;;;;;;23.90;15.70;;;;;;;;;;5016710;28;20574;-68
2023/04/08 11:30:35;;;;;;;23.27;16.10;;;;;;;;;;5024149;28;20197;-70
2023/04/08 11:33:01;;;;;;;23.83;16.60;;;;;;;;;;5025320;28;20186;-70
2023/04/08 11:35:30;;;;;;;22.02;15.30;;;;;;;;;;5014784;28;20526;-69
2023/04/08 11:37:56;;;;;;;22.85;16.30;;;;;;;;;;5025791;28;20190;-69
2023/04/08 11:40:22;;;;;;;22.35;15.43;;;;;;;;;;5019742;28;20189;-70
2023/04/08 11:42:48;;;;;;;25.15;16.85;;;;;;;;;;5018948;28;20218;-70
2023/04/08 11:45:16;;;;;;;24.83;16.98;;;;;;;;;;5020019;28;20190;-70
2023/04/08 11:47:42;;;;;;;24.67;16.60;;;;;;;;;;5017110;28;21021;-69
2023/04/08 11:50:08;;;;;;;22.52;16.05;;;;;;;;;;5021022;28;20677;-69
2023/04/08 11:52:44;;;;;;;24.58;15.98;;;;;;;;;;5023912;28;20301;-69
2023/04/08 11:55:30;;;;;;;22.02;15.80;;;;;;;;;;5015258;28;20198;-68
2023/04/08 11:58:02;;;;;;;21.90;15.48;;;;;;;;;;5016487;28;20213;-69
2023/04/08 12:00:27;;;;;;;21.83;15.25;;;;;;;;;;5020198;28;20663;-68
2023/04/08 12:02:53;;;;;;;25.17;15.13;;;;;;;;;;5019545;28;20252;-68
2023/04/08 12:05:20;;;;;;;22.17;16.05;;;;;;;;;;5018672;28;20194;-71
2023/04/08 12:07:46;;;;;;;18.58;13.85;;;;;;;;;;5022885;28;20186;-69
2023/04/08 12:10:11;;;;;;;20.52;14.43;;;;;;;;;;5023959;28;20197;-69
2023/04/08 12:12:37;;;;;;;19.65;13.68;;;;;;;;;;5024449;28;20539;-69
2023/04/08 12:15:03;;;;;;;19.02;14.00;;;;;;;;;;5018140;28;20211;-69
2023/04/08 12:17:29;;;;;;;16.27;12.95;;;;;;;;;;5023323;28;20228;-69
2023/04/08 12:19:55;;;;;;;18.42;13.57;;;;;;;;;;5014340;28;20662;-69
2023/04/08 12:22:21;;;;;;;18.67;14.63;;;;;;;;;;5017628;28;20202;-68
2023/04/08 12:24:46;;;;;;;20.08;14.60;;;;;;;;;;5024746;28;20217;-68
2023/04/08 12:27:12;;;;;;;16.27;12.93;;;;;;;;;;5014091;28;20256;-69
2023/04/08 12:29:38;;;;;;;16.17;12.93;;;;;;;;;;5023036;28;20194;-69
2023/04/08 12:32:04;;;;;;;18.17;13.70;;;;;;;;;;5023759;28;20697;-70
2023/04/08 12:34:30;;;;;;;16.55;13.23;;;;;;;;;;5021944;28;20214;-69
2023/04/08 12:36:55;;;;;;;16.98;13.40;;;;;;;;;;5020381;28;20209;-69
2023/04/08 12:39:21;;;;;;;18.92;13.40;;;;;;;;;;5016457;28;20191;-69
2023/04/08 12:41:46;;;;;;;20.65;13.88;;;;;;;;;;5018698;28;20186;-69
2023/04/08 12:44:12;;;;;;;19.17;14.27;;;;;;;;;;5017250;28;20584;-68
2023/04/08 12:46:37;;;;;;;20.27;14.13;;;;;;;;;;5021211;28;20189;-69
2023/04/08 12:49:03;;;;;;;17.33;13.00;;;;;;;;;;5011894;28;20190;-69
2023/04/08 12:51:29;;;;;;;22.05;14.02;;;;;;;;;;5022860;28;20642;-68
2023/04/08 12:53:55;;;;;;;18.20;12.88;;;;;;;;;;5026037;28;20186;-68
2023/04/08 12:56:21;;;;;;;16.83;12.77;;;;;;;;;;5021196;28;20190;-69
2023/04/08 12:58:47;;;;;;;18.00;13.10;;;;;;;;;;5018835;28;20241;-68
2023/04/08 13:01:12;;;;;;;18.48;13.43;;;;;;;;;;5019781;28;20282;-68
2023/04/08 13:03:37;;;;;;;19.15;12.75;;;;;;;;;;5019616;28;20637;-69
2023/04/08 13:06:03;;;;;;;18.75;13.45;;;;;;;;;;5026254;28;20247;-70
2023/04/08 13:08:28;;;;;;;14.85;11.60;;;;;;;;;;5028803;28;20190;-68
2023/04/08 13:10:54;;;;;;;16.17;12.32;;;;;;;;;;5025063;28;20190;-68
2023/04/08 13:13:19;;;;;;;18.00;12.90;;;;;;;;;;5023701;28;20178;-68
2023/04/08 13:15:46;;;;;;;17.15;11.70;;;;;;;;;;5022229;28;20658;-69
2023/04/08 13:18:11;;;;;;;16.70;12.02;;;;;;;;;;5024354;28;20360;-68
2023/04/08 13:20:37;;;;;;;14.95;11.23;;;;;;;;;;5025216;28;20190;-68
2023/04/08 13:23:02;;;;;;;15.70;11.77;;;;;;;;;;5028402;28;20221;-69
2023/04/08 13:25:28;;;;;;;15.35;11.65;;;;;;;;;;5017689;28;20193;-68
2023/04/08 13:27:53;;;;;;;13.75;11.25;;;;;;;;;;5026983;28;20301;-69
2023/04/08 13:30:19;;;;;;;13.63;10.25;;;;;;;;;;5022826;28;20556;-68
2023/04/08 13:32:44;;;;;;;12.25;9.88;;;;;;;;;;5021001;28;20225;-68
2023/04/08 13:35:10;;;;;;;11.73;9.20;;;;;;;;;;5019459;28;20189;-68
2023/04/08 13:37:35;;;;;;;12.05;8.73;;;;;;;;;;5023460;28;20249;-68
2023/04/08 13:40:01;;;;;;;11.60;8.43;;;;;;;;;;5026518;28;20190;-69
2023/04/08 13:42:26;;;;;;;11.15;8.88;;;;;;;;;;5025545;28;20225;-68
2023/04/08 13:44:52;;;;;;;11.60;9.65;;;;;;;;;;5018893;28;20217;-69
2023/04/08 13:47:17;;;;;;;11.40;9.52;;;;;;;;;;5026094;28;20220;-69
2023/04/08 13:49:43;;;;;;;14.38;9.52;;;;;;;;;;5024450;28;20252;-69
2023/04/08 13:52:08;;;;;;;16.08;10.50;;;;;;;;;;5022700;28;20521;-68
2023/04/08 13:54:33;;;;;;;13.50;11.00;;;;;;;;;;5025687;28;20213;-68
2023/04/08 13:57:00;;;;;;;15.75;12.00;;;;;;;;;;5029000;28;20205;-68
2023/04/08 13:59:25;;;;;;;16.58;12.38;;;;;;;;;;5030454;28;20648;-69
2023/04/08 14:01:52;;;;;;;16.23;12.80;;;;;;;;;;5028333;28;20206;-69
2023/04/08 14:04:19;;;;;;;15.52;12.00;;;;;;;;;;5025394;28;20198;-69
2023/04/08 14:06:45;;;;;;;15.88;11.75;;;;;;;;;;5024260;28;20186;-69
2023/04/08 14:09:11;;;;;;;17.15;12.20;;;;;;;;;;5025033;28;20197;-68
2023/04/08 14:11:36;;;;;;;14.55;11.15;;;;;;;;;;5020477;28;20186;-69
2023/04/08 14:14:02;;;;;;;16.60;12.25;;;;;;;;;;5025835;28;20190;-69
2023/04/08 14:16:29;;;;;;;15.98;11.90;;;;;;;;;;5026244;28;20299;-69
2023/04/08 14:18:55;;;;;;;13.95;11.35;;;;;;;;;;5029757;28;20186;-70
2023/04/08 14:21:20;;;;;;;15.23;12.00;;;;;;;;;;5024862;28;20233;-69